sensor_id;sensor_type;location;lat;lon;timestamp;P1;durP1;ratioP1;P2;durP2;ratioP2
44204;SDS011;30163;42.698;23.344;2023-08-20T00:00:06;17.23;;;8.25;;
44204;SDS011;30163;42.698;23.344;2023-08-20T00:02:33;16.10;;;9.02;;
44204;SDS011;30163;42.698;23.344;2023-08-20T00:05:01;15.23;;;8.85;;
44204;SDS011;30163;42.698;23.344;2023-08-20T00:07:28;27.73;;;12.90;;
44204;SDS011;30163;42.698;23.344;2023-08-20T00:09:55;23.58;;;11.65;;
44204;SDS011;30163;42.698;23.344;2023-08-20T00:12:20;29.27;;;15.10;;
44204;SDS011;30163;42.698;23.344;2023-08-20T00:15:00;32.35;;;10.10;;
44204;SDS011;30163;42.698;23.344;2023-08-20T00:17:31;19.65;;;9.68;;
44204;SDS011;30163;42.698;23.344;2023-08-20T00:20:04;16.92;;;8.77;;
44204;SDS011;30163;42.698;23.344;2023-08-20T00:22:35;16.10;;;8.38;;
44204;SDS011;30163;42.698;23.344;2023-08-20T00:25:01;26.02;;;8.25;;
44204;SDS011;30163;42.698;23.344;2023-08-20T00:27:28;16.40;;;8.15;;
44204;SDS011;30163;42.698;23.344;2023-08-20T00:29:54;14.98;;;8.77;;
44204;SDS011;30163;42.698;23.344;2023-08-20T00:32:19;15.88;;;9.43;;
44204;SDS011;30163;42.698;23.344;2023-08-20T00:34:45;18.63;;;9.13;;
44204;SDS011;30163;42.698;23.344;2023-08-20T00:37:10;15.55;;;9.10;;
44204;SDS011;30163;42.698;23.344;2023-08-20T00:39:37;18.65;;;8.50;;
44204;SDS011;30163;42.698;23.344;2023-08-20T00:42:02;16.42;;;8.90;;
44204;SDS011;30163;42.698;23.344;2023-08-20T00:44:29;20.67;;;9.27;;
44204;SDS011;30163;42.698;23.344;2023-08-20T00:46:55;17.75;;;9.38;;
44204;SDS011;30163;42.698;23.344;2023-08-20T00:49:20;16.02;;;9.35;;
44204;SDS011;30163;42.698;23.344;2023-08-20T00:51:46;19.25;;;9.45;;
44204;SDS011;30163;42.698;23.344;2023-08-20T00:54:11;17.45;;;10.70;;
44204;SDS011;30163;42.698;23.344;2023-08-20T00:56:37;14.35;;;9.18;;
44204;SDS011;30163;42.698;23.344;2023-08-20T00:59:03;17.02;;;9.25;;
44204;SDS011;30163;42.698;23.344;2023-08-20T01:01:29;16.35;;;9.77;;
44204;SDS011;30163;42.698;23.344;2023-08-20T01:03:54;14.38;;;9.25;;
44204;SDS011;30163;42.698;23.344;2023-08-20T01:06:21;23.58;;;9.88;;
44204;SDS011;30163;42.698;23.344;2023-08-20T01:08:59;25.67;;;9.80;;
44204;SDS011;30163;42.698;23.344;2023-08-20T01:11:29;20.30;;;10.15;;
44204;SDS011;30163;42.698;23.344;2023-08-20T01:13:58;19.67;;;9.55;;
44204;SDS011;30163;42.698;23.344;2023-08-20T01:16:23;18.92;;;9.70;;
44204;SDS011;30163;42.698;23.344;2023-08-20T01:18:49;24.90;;;10.38;;
44204;SDS011;30163;42.698;23.344;2023-08-20T01:21:28;16.88;;;10.20;;
44204;SDS011;30163;42.698;23.344;2023-08-20T01:26:35;24.45;;;9.65;;
44204;SDS011;30163;42.698;23.344;2023-08-20T01:29:06;19.90;;;9.55;;
44204;SDS011;30163;42.698;23.344;2023-08-20T01:31:31;15.50;;;10.15;;
44204;SDS011;30163;42.698;23.344;2023-08-20T01:33:57;18.08;;;10.07;;
44204;SDS011;30163;42.698;23.344;2023-08-20T01:36:23;17.77;;;9.82;;
44204;SDS011;30163;42.698;23.344;2023-08-20T01:38:48;25.20;;;10.00;;
44204;SDS011;30163;42.698;23.344;2023-08-20T01:41:14;15.80;;;9.32;;
44204;SDS011;30163;42.698;23.344;2023-08-20T01:43:39;16.60;;;9.60;;
44204;SDS011;30163;42.698;23.344;2023-08-20T01:46:05;16.00;;;9.43;;
44204;SDS011;30163;42.698;23.344;2023-08-20T01:48:30;15.85;;;10.32;;
44204;SDS011;30163;42.698;23.344;2023-08-20T01:50:55;14.65;;;9.43;;
44204;SDS011;30163;42.698;23.344;2023-08-20T01:53:21;20.88;;;10.77;;
44204;SDS011;30163;42.698;23.344;2023-08-20T01:55:46;19.33;;;10.15;;
44204;SDS011;30163;42.698;23.344;2023-08-20T01:58:12;24.50;;;10.73;;
44204;SDS011;30163;42.698;23.344;2023-08-20T02:00:37;20.92;;;10.85;;
44204;SDS011;30163;42.698;23.344;2023-08-20T02:03:03;19.80;;;10.65;;
44204;SDS011;30163;42.698;23.344;2023-08-20T02:05:28;21.95;;;10.35;;
44204;SDS011;30163;42.698;23.344;2023-08-20T02:07:54;21.02;;;10.80;;
44204;SDS011;30163;42.698;23.344;2023-08-20T02:10:19;16.13;;;10.70;;
44204;SDS011;30163;42.698;23.344;2023-08-20T02:12:46;16.20;;;10.60;;
44204;SDS011;30163;42.698;23.344;2023-08-20T02:15:11;14.15;;;9.85;;
44204;SDS011;30163;42.698;23.344;2023-08-20T02:17:37;19.52;;;11.32;;
44204;SDS011;30163;42.698;23.344;2023-08-20T02:20:02;24.15;;;11.38;;
44204;SDS011;30163;42.698;23.344;2023-08-20T02:22:29;19.27;;;11.85;;
44204;SDS011;30163;42.698;23.344;2023-08-20T02:24:55;36.63;;;11.60;;
44204;SDS011;30163;42.698;23.344;2023-08-20T02:27:21;28.00;;;11.30;;
44204;SDS011;30163;42.698;23.344;2023-08-20T02:29:46;25.92;;;11.05;;
44204;SDS011;30163;42.698;23.344;2023-08-20T02:32:11;25.63;;;10.80;;
44204;SDS011;30163;42.698;23.344;2023-08-20T02:34:37;20.63;;;11.43;;
44204;SDS011;30163;42.698;23.344;2023-08-20T02:37:02;22.40;;;11.18;;
44204;SDS011;30163;42.698;23.344;2023-08-20T02:39:28;22.15;;;11.18;;
44204;SDS011;30163;42.698;23.344;2023-08-20T02:41:53;19.65;;;10.25;;
44204;SDS011;30163;42.698;23.344;2023-08-20T02:44:19;20.58;;;10.55;;
44204;SDS011;30163;42.698;23.344;2023-08-20T02:46:44;21.45;;;10.68;;
44204;SDS011;30163;42.698;23.344;2023-08-20T02:49:10;27.63;;;12.55;;
44204;SDS011;30163;42.698;23.344;2023-08-20T02:51:35;16.67;;;11.02;;
44204;SDS011;30163;42.698;23.344;2023-08-20T02:54:01;21.00;;;10.75;;
44204;SDS011;30163;42.698;23.344;2023-08-20T02:56:26;19.50;;;11.05;;
44204;SDS011;30163;42.698;23.344;2023-08-20T02:58:52;19.98;;;11.43;;
44204;SDS011;30163;42.698;23.344;2023-08-20T03:01:21;19.33;;;11.48;;
44204;SDS011;30163;42.698;23.344;2023-08-20T03:03:47;23.40;;;11.98;;
44204;SDS011;30163;42.698;23.344;2023-08-20T03:06:12;22.08;;;11.43;;
44204;SDS011;30163;42.698;23.344;2023-08-20T03:08:38;22.90;;;11.00;;
44204;SDS011;30163;42.698;23.344;2023-08-20T03:11:03;24.45;;;12.00;;
44204;SDS011;30163;42.698;23.344;2023-08-20T03:13:29;22.10;;;11.27;;
44204;SDS011;30163;42.698;23.344;2023-08-20T03:15:54;24.25;;;11.30;;
44204;SDS011;30163;42.698;23.344;2023-08-20T03:18:20;20.77;;;12.25;;
44204;SDS011;30163;42.698;23.344;2023-08-20T03:20:45;23.45;;;12.40;;
44204;SDS011;30163;42.698;23.344;2023-08-20T03:23:10;22.55;;;12.02;;
44204;SDS011;30163;42.698;23.344;2023-08-20T03:25:36;26.33;;;11.70;;
44204;SDS011;30163;42.698;23.344;2023-08-20T03:28:01;25.10;;;11.30;;
44204;SDS011;30163;42.698;23.344;2023-08-20T03:30:27;24.42;;;11.77;;
44204;SDS011;30163;42.698;23.344;2023-08-20T03:32:52;22.58;;;11.55;;
44204;SDS011;30163;42.698;23.344;2023-08-20T03:35:18;18.25;;;12.48;;
44204;SDS011;30163;42.698;23.344;2023-08-20T03:37:43;26.42;;;13.50;;
44204;SDS011;30163;42.698;23.344;2023-08-20T03:40:09;20.13;;;13.05;;
44204;SDS011;30163;42.698;23.344;2023-08-20T03:42:35;26.83;;;12.45;;
44204;SDS011;30163;42.698;23.344;2023-08-20T03:45:00;21.23;;;12.90;;
44204;SDS011;30163;42.698;23.344;2023-08-20T03:47:25;27.60;;;12.48;;
44204;SDS011;30163;42.698;23.344;2023-08-20T03:49:52;18.83;;;11.70;;
44204;SDS011;30163;42.698;23.344;2023-08-20T03:52:17;24.90;;;12.77;;
44204;SDS011;30163;42.698;23.344;2023-08-20T03:54:42;27.85;;;11.82;;
44204;SDS011;30163;42.698;23.344;2023-08-20T03:57:08;18.45;;;12.50;;
44204;SDS011;30163;42.698;23.344;2023-08-20T03:59:33;24.98;;;12.68;;
44204;SDS011;30163;42.698;23.344;2023-08-20T04:01:59;22.73;;;12.98;;
44204;SDS011;30163;42.698;23.344;2023-08-20T04:04:24;30.55;;;14.45;;
44204;SDS011;30163;42.698;23.344;2023-08-20T04:06:50;22.50;;;11.23;;
44204;SDS011;30163;42.698;23.344;2023-08-20T04:09:34;21.33;;;12.85;;
44204;SDS011;30163;42.698;23.344;2023-08-20T04:12:01;17.40;;;11.98;;
44204;SDS011;30163;42.698;23.344;2023-08-20T04:14:27;23.42;;;12.88;;
44204;SDS011;30163;42.698;23.344;2023-08-20T04:16:52;20.65;;;11.65;;
44204;SDS011;30163;42.698;23.344;2023-08-20T04:19:17;23.50;;;11.95;;
44204;SDS011;30163;42.698;23.344;2023-08-20T04:21:43;27.23;;;11.70;;
44204;SDS011;30163;42.698;23.344;2023-08-20T04:24:08;20.52;;;11.77;;
44204;SDS011;30163;42.698;23.344;2023-08-20T04:26:34;33.92;;;12.43;;
44204;SDS011;30163;42.698;23.344;2023-08-20T04:28:59;19.75;;;12.15;;
44204;SDS011;30163;42.698;23.344;2023-08-20T04:31:25;33.08;;;11.95;;
44204;SDS011;30163;42.698;23.344;2023-08-20T04:33:50;23.02;;;10.50;;
44204;SDS011;30163;42.698;23.344;2023-08-20T04:36:16;16.02;;;10.48;;
44204;SDS011;30163;42.698;23.344;2023-08-20T04:38:41;23.52;;;11.65;;
44204;SDS011;30163;42.698;23.344;2023-08-20T04:41:06;20.02;;;11.30;;
44204;SDS011;30163;42.698;23.344;2023-08-20T04:43:32;21.98;;;11.35;;
44204;SDS011;30163;42.698;23.344;2023-08-20T04:45:57;18.92;;;12.35;;
44204;SDS011;30163;42.698;23.344;2023-08-20T04:48:23;25.95;;;11.52;;
44204;SDS011;30163;42.698;23.344;2023-08-20T04:50:48;24.88;;;11.30;;
44204;SDS011;30163;42.698;23.344;2023-08-20T04:53:13;21.98;;;10.80;;
44204;SDS011;30163;42.698;23.344;2023-08-20T04:55:39;22.70;;;10.60;;
44204;SDS011;30163;42.698;23.344;2023-08-20T04:58:04;20.95;;;9.95;;
44204;SDS011;30163;42.698;23.344;2023-08-20T05:00:30;27.23;;;11.15;;
44204;SDS011;30163;42.698;23.344;2023-08-20T05:02:55;20.13;;;10.75;;
44204;SDS011;30163;42.698;23.344;2023-08-20T05:05:21;19.40;;;10.75;;
44204;SDS011;30163;42.698;23.344;2023-08-20T05:07:46;26.67;;;10.48;;
44204;SDS011;30163;42.698;23.344;2023-08-20T05:10:12;17.77;;;10.55;;
44204;SDS011;30163;42.698;23.344;2023-08-20T05:12:37;17.77;;;11.10;;
44204;SDS011;30163;42.698;23.344;2023-08-20T05:15:03;21.58;;;10.27;;
44204;SDS011;30163;42.698;23.344;2023-08-20T05:17:29;18.13;;;10.32;;
44204;SDS011;30163;42.698;23.344;2023-08-20T05:19:54;22.33;;;10.32;;
44204;SDS011;30163;42.698;23.344;2023-08-20T05:22:20;24.35;;;11.18;;
44204;SDS011;30163;42.698;23.344;2023-08-20T05:24:45;28.35;;;10.88;;
44204;SDS011;30163;42.698;23.344;2023-08-20T05:27:12;24.63;;;11.30;;
44204;SDS011;30163;42.698;23.344;2023-08-20T05:29:44;22.17;;;11.90;;
44204;SDS011;30163;42.698;23.344;2023-08-20T05:32:10;21.27;;;11.35;;
44204;SDS011;30163;42.698;23.344;2023-08-20T05:34:36;25.45;;;10.93;;
44204;SDS011;30163;42.698;23.344;2023-08-20T05:37:01;22.58;;;10.23;;
44204;SDS011;30163;42.698;23.344;2023-08-20T05:39:27;18.88;;;11.10;;
44204;SDS011;30163;42.698;23.344;2023-08-20T05:41:53;20.55;;;10.88;;
44204;SDS011;30163;42.698;23.344;2023-08-20T05:44:19;19.83;;;10.02;;
44204;SDS011;30163;42.698;23.344;2023-08-20T05:46:45;27.15;;;10.77;;
44204;SDS011;30163;42.698;23.344;2023-08-20T05:49:10;27.85;;;11.00;;
44204;SDS011;30163;42.698;23.344;2023-08-20T05:51:37;14.75;;;10.55;;
44204;SDS011;30163;42.698;23.344;2023-08-20T05:54:02;21.48;;;10.60;;
44204;SDS011;30163;42.698;23.344;2023-08-20T05:56:28;21.75;;;10.68;;
44204;SDS011;30163;42.698;23.344;2023-08-20T05:58:53;17.42;;;10.68;;
44204;SDS011;30163;42.698;23.344;2023-08-20T06:01:19;20.77;;;11.82;;
44204;SDS011;30163;42.698;23.344;2023-08-20T06:03:44;22.20;;;10.95;;
44204;SDS011;30163;42.698;23.344;2023-08-20T06:06:09;20.52;;;11.30;;
44204;SDS011;30163;42.698;23.344;2023-08-20T06:08:35;25.60;;;11.05;;
44204;SDS011;30163;42.698;23.344;2023-08-20T06:11:00;18.70;;;11.02;;
44204;SDS011;30163;42.698;23.344;2023-08-20T06:13:25;19.10;;;11.63;;
44204;SDS011;30163;42.698;23.344;2023-08-20T06:15:51;25.30;;;12.65;;
44204;SDS011;30163;42.698;23.344;2023-08-20T06:18:16;18.77;;;12.30;;
44204;SDS011;30163;42.698;23.344;2023-08-20T06:20:42;24.90;;;13.55;;
44204;SDS011;30163;42.698;23.344;2023-08-20T06:23:07;27.35;;;12.45;;
44204;SDS011;30163;42.698;23.344;2023-08-20T06:25:33;22.23;;;11.93;;
44204;SDS011;30163;42.698;23.344;2023-08-20T06:27:58;22.45;;;11.25;;
44204;SDS011;30163;42.698;23.344;2023-08-20T06:30:24;32.80;;;12.18;;
44204;SDS011;30163;42.698;23.344;2023-08-20T06:32:49;26.30;;;12.18;;
44204;SDS011;30163;42.698;23.344;2023-08-20T06:35:15;21.33;;;11.80;;
44204;SDS011;30163;42.698;23.344;2023-08-20T06:37:40;23.20;;;12.02;;
44204;SDS011;30163;42.698;23.344;2023-08-20T06:40:06;21.67;;;10.27;;
44204;SDS011;30163;42.698;23.344;2023-08-20T06:42:32;17.75;;;10.50;;
44204;SDS011;30163;42.698;23.344;2023-08-20T06:44:58;21.15;;;11.27;;
44204;SDS011;30163;42.698;23.344;2023-08-20T06:47:23;17.08;;;10.80;;
44204;SDS011;30163;42.698;23.344;2023-08-20T06:49:49;15.75;;;10.38;;
44204;SDS011;30163;42.698;23.344;2023-08-20T06:52:15;27.10;;;9.98;;
44204;SDS011;30163;42.698;23.344;2023-08-20T06:54:40;22.20;;;10.40;;
44204;SDS011;30163;42.698;23.344;2023-08-20T06:57:06;28.25;;;11.25;;
44204;SDS011;30163;42.698;23.344;2023-08-20T06:59:31;15.48;;;10.07;;
44204;SDS011;30163;42.698;23.344;2023-08-20T07:01:57;24.38;;;10.55;;
44204;SDS011;30163;42.698;23.344;2023-08-20T07:04:22;16.98;;;10.05;;
44204;SDS011;30163;42.698;23.344;2023-08-20T07:06:47;21.35;;;10.73;;
44204;SDS011;30163;42.698;23.344;2023-08-20T07:09:13;20.00;;;9.85;;
44204;SDS011;30163;42.698;23.344;2023-08-20T07:11:38;23.90;;;10.93;;
44204;SDS011;30163;42.698;23.344;2023-08-20T07:14:04;27.42;;;10.35;;
44204;SDS011;30163;42.698;23.344;2023-08-20T07:16:29;15.27;;;9.48;;
44204;SDS011;30163;42.698;23.344;2023-08-20T07:18:55;18.40;;;9.68;;
44204;SDS011;30163;42.698;23.344;2023-08-20T07:21:20;17.77;;;9.13;;
44204;SDS011;30163;42.698;23.344;2023-08-20T07:23:45;15.15;;;9.10;;
44204;SDS011;30163;42.698;23.344;2023-08-20T07:26:11;16.83;;;8.30;;
44204;SDS011;30163;42.698;23.344;2023-08-20T07:28:40;15.70;;;9.02;;
44204;SDS011;30163;42.698;23.344;2023-08-20T07:31:28;18.83;;;8.63;;
44204;SDS011;30163;42.698;23.344;2023-08-20T07:33:55;20.02;;;8.48;;
44204;SDS011;30163;42.698;23.344;2023-08-20T07:36:21;22.45;;;7.68;;
44204;SDS011;30163;42.698;23.344;2023-08-20T07:38:47;12.77;;;7.25;;
44204;SDS011;30163;42.698;23.344;2023-08-20T07:41:13;14.32;;;7.80;;
44204;SDS011;30163;42.698;23.344;2023-08-20T07:43:39;18.83;;;7.30;;
44204;SDS011;30163;42.698;23.344;2023-08-20T07:46:05;18.27;;;7.45;;
44204;SDS011;30163;42.698;23.344;2023-08-20T07:48:31;31.23;;;7.22;;
44204;SDS011;30163;42.698;23.344;2023-08-20T07:50:56;13.77;;;7.20;;
44204;SDS011;30163;42.698;23.344;2023-08-20T07:53:22;18.88;;;7.60;;
44204;SDS011;30163;42.698;23.344;2023-08-20T07:55:47;19.73;;;6.95;;
44204;SDS011;30163;42.698;23.344;2023-08-20T07:58:13;10.68;;;6.55;;
44204;SDS011;30163;42.698;23.344;2023-08-20T08:00:38;29.48;;;6.95;;
44204;SDS011;30163;42.698;23.344;2023-08-20T08:03:03;19.10;;;6.97;;
44204;SDS011;30163;42.698;23.344;2023-08-20T08:05:29;13.77;;;6.05;;
44204;SDS011;30163;42.698;23.344;2023-08-20T08:07:54;11.25;;;7.05;;
44204;SDS011;30163;42.698;23.344;2023-08-20T08:10:20;11.98;;;6.85;;
44204;SDS011;30163;42.698;23.344;2023-08-20T08:12:46;13.43;;;6.65;;
44204;SDS011;30163;42.698;23.344;2023-08-20T08:15:11;14.73;;;6.65;;
44204;SDS011;30163;42.698;23.344;2023-08-20T08:17:38;14.30;;;6.85;;
44204;SDS011;30163;42.698;23.344;2023-08-20T08:20:03;21.27;;;7.40;;
44204;SDS011;30163;42.698;23.344;2023-08-20T08:22:29;9.75;;;6.68;;
44204;SDS011;30163;42.698;23.344;2023-08-20T08:24:55;16.30;;;7.43;;
44204;SDS011;30163;42.698;23.344;2023-08-20T08:27:20;18.23;;;6.57;;
44204;SDS011;30163;42.698;23.344;2023-08-20T08:29:45;14.20;;;6.25;;
44204;SDS011;30163;42.698;23.344;2023-08-20T08:32:11;14.93;;;6.90;;
44204;SDS011;30163;42.698;23.344;2023-08-20T08:34:36;8.68;;;6.25;;
44204;SDS011;30163;42.698;23.344;2023-08-20T08:37:02;11.55;;;7.47;;
44204;SDS011;30163;42.698;23.344;2023-08-20T08:39:27;16.77;;;6.43;;
44204;SDS011;30163;42.698;23.344;2023-08-20T08:41:54;17.10;;;6.15;;
44204;SDS011;30163;42.698;23.344;2023-08-20T08:44:27;14.88;;;5.85;;
44204;SDS011;30163;42.698;23.344;2023-08-20T08:46:53;13.20;;;6.05;;
44204;SDS011;30163;42.698;23.344;2023-08-20T08:49:18;10.23;;;5.90;;
44204;SDS011;30163;42.698;23.344;2023-08-20T08:51:44;8.07;;;5.88;;
44204;SDS011;30163;42.698;23.344;2023-08-20T08:54:11;16.70;;;5.70;;
44204;SDS011;30163;42.698;23.344;2023-08-20T08:56:38;14.25;;;6.22;;
44204;SDS011;30163;42.698;23.344;2023-08-20T08:59:04;8.23;;;5.03;;
44204;SDS011;30163;42.698;23.344;2023-08-20T09:01:29;9.68;;;5.43;;
44204;SDS011;30163;42.698;23.344;2023-08-20T09:03:55;10.13;;;5.35;;
44204;SDS011;30163;42.698;23.344;2023-08-20T09:06:21;10.35;;;5.57;;
44204;SDS011;30163;42.698;23.344;2023-08-20T09:08:46;8.63;;;6.22;;
44204;SDS011;30163;42.698;23.344;2023-08-20T09:11:12;13.32;;;5.85;;
44204;SDS011;30163;42.698;23.344;2023-08-20T09:13:41;11.40;;;5.35;;
44204;SDS011;30163;42.698;23.344;2023-08-20T09:16:09;14.18;;;5.90;;
44204;SDS011;30163;42.698;23.344;2023-08-20T09:21:08;10.38;;;5.22;;
44204;SDS011;30163;42.698;23.344;2023-08-20T09:23:35;7.50;;;5.22;;
44204;SDS011;30163;42.698;23.344;2023-08-20T09:26:01;10.80;;;5.38;;
44204;SDS011;30163;42.698;23.344;2023-08-20T09:28:27;9.05;;;5.05;;
44204;SDS011;30163;42.698;23.344;2023-08-20T09:30:59;9.30;;;5.15;;
44204;SDS011;30163;42.698;23.344;2023-08-20T09:33:27;9.00;;;5.53;;
44204;SDS011;30163;42.698;23.344;2023-08-20T09:35:53;14.90;;;5.10;;
44204;SDS011;30163;42.698;23.344;2023-08-20T09:38:20;8.55;;;5.43;;
44204;SDS011;30163;42.698;23.344;2023-08-20T09:40:49;10.63;;;5.05;;
44204;SDS011;30163;42.698;23.344;2023-08-20T09:43:21;6.05;;;3.97;;
44204;SDS011;30163;42.698;23.344;2023-08-20T09:48:18;6.53;;;4.43;;
44204;SDS011;30163;42.698;23.344;2023-08-20T09:50:46;6.88;;;3.63;;
44204;SDS011;30163;42.698;23.344;2023-08-20T09:53:37;6.20;;;4.03;;
44204;SDS011;30163;42.698;23.344;2023-08-20T09:56:16;6.85;;;4.05;;
44204;SDS011;30163;42.698;23.344;2023-08-20T09:58:47;7.95;;;4.55;;
44204;SDS011;30163;42.698;23.344;2023-08-20T10:01:13;5.00;;;3.63;;
44204;SDS011;30163;42.698;23.344;2023-08-20T10:03:39;9.15;;;4.00;;
44204;SDS011;30163;42.698;23.344;2023-08-20T10:06:06;6.38;;;3.75;;
44204;SDS011;30163;42.698;23.344;2023-08-20T10:08:32;9.80;;;4.03;;
44204;SDS011;30163;42.698;23.344;2023-08-20T10:10:58;14.35;;;4.22;;
44204;SDS011;30163;42.698;23.344;2023-08-20T10:13:24;15.43;;;4.07;;
44204;SDS011;30163;42.698;23.344;2023-08-20T10:15:49;7.47;;;3.90;;
44204;SDS011;30163;42.698;23.344;2023-08-20T10:18:15;6.65;;;3.83;;
44204;SDS011;30163;42.698;23.344;2023-08-20T10:20:44;10.32;;;3.70;;
44204;SDS011;30163;42.698;23.344;2023-08-20T10:23:10;5.63;;;4.20;;
44204;SDS011;30163;42.698;23.344;2023-08-20T10:25:41;6.38;;;3.58;;
44204;SDS011;30163;42.698;23.344;2023-08-20T10:28:13;12.57;;;3.90;;
44204;SDS011;30163;42.698;23.344;2023-08-20T10:31:02;6.93;;;4.32;;
44204;SDS011;30163;42.698;23.344;2023-08-20T10:36:15;7.68;;;3.97;;
44204;SDS011;30163;42.698;23.344;2023-08-20T10:38:41;4.65;;;3.80;;
44204;SDS011;30163;42.698;23.344;2023-08-20T10:41:25;6.57;;;3.97;;
44204;SDS011;30163;42.698;23.344;2023-08-20T10:43:51;6.80;;;3.92;;
44204;SDS011;30163;42.698;23.344;2023-08-20T10:46:24;7.18;;;4.13;;
44204;SDS011;30163;42.698;23.344;2023-08-20T10:48:51;5.75;;;3.60;;
44204;SDS011;30163;42.698;23.344;2023-08-20T10:56:24;6.88;;;4.45;;
44204;SDS011;30163;42.698;23.344;2023-08-20T10:59:22;4.55;;;3.35;;
44204;SDS011;30163;42.698;23.344;2023-08-20T11:01:48;6.03;;;3.88;;
44204;SDS011;30163;42.698;23.344;2023-08-20T11:04:18;9.70;;;4.03;;
44204;SDS011;30163;42.698;23.344;2023-08-20T11:06:45;7.25;;;3.78;;
44204;SDS011;30163;42.698;23.344;2023-08-20T11:09:11;5.65;;;3.60;;
44204;SDS011;30163;42.698;23.344;2023-08-20T11:11:38;12.77;;;3.65;;
44204;SDS011;30163;42.698;23.344;2023-08-20T11:14:11;6.60;;;3.28;;
44204;SDS011;30163;42.698;23.344;2023-08-20T11:16:39;9.45;;;4.15;;
44204;SDS011;30163;42.698;23.344;2023-08-20T11:19:04;8.05;;;3.55;;
44204;SDS011;30163;42.698;23.344;2023-08-20T11:21:33;9.23;;;3.67;;
44204;SDS011;30163;42.698;23.344;2023-08-20T11:24:08;6.28;;;3.13;;
44204;SDS011;30163;42.698;23.344;2023-08-20T11:26:34;6.20;;;3.75;;
44204;SDS011;30163;42.698;23.344;2023-08-20T11:29:01;7.25;;;3.92;;
44204;SDS011;30163;42.698;23.344;2023-08-20T11:31:30;8.82;;;4.10;;
44204;SDS011;30163;42.698;23.344;2023-08-20T11:33:56;9.20;;;3.38;;
44204;SDS011;30163;42.698;23.344;2023-08-20T11:36:22;7.82;;;3.55;;
44204;SDS011;30163;42.698;23.344;2023-08-20T11:38:51;8.68;;;4.30;;
44204;SDS011;30163;42.698;23.344;2023-08-20T11:41:18;9.18;;;4.07;;
44204;SDS011;30163;42.698;23.344;2023-08-20T11:43:45;6.68;;;3.70;;
44204;SDS011;30163;42.698;23.344;2023-08-20T11:46:14;5.78;;;3.63;;
44204;SDS011;30163;42.698;23.344;2023-08-20T11:51:37;6.35;;;3.50;;
44204;SDS011;30163;42.698;23.344;2023-08-20T11:57:24;7.47;;;3.72;;
44204;SDS011;30163;42.698;23.344;2023-08-20T11:59:31;11.85;;;3.65;;
44204;SDS011;30163;42.698;23.344;2023-08-20T12:01:58;13.23;;;3.63;;
44204;SDS011;30163;42.698;23.344;2023-08-20T12:04:25;8.30;;;3.90;;
44204;SDS011;30163;42.698;23.344;2023-08-20T12:07:05;6.85;;;3.30;;
44204;SDS011;30163;42.698;23.344;2023-08-20T12:09:34;5.72;;;3.72;;
44204;SDS011;30163;42.698;23.344;2023-08-20T12:11:59;12.65;;;4.00;;
44204;SDS011;30163;42.698;23.344;2023-08-20T12:14:26;10.15;;;3.60;;
44204;SDS011;30163;42.698;23.344;2023-08-20T12:16:53;11.52;;;3.75;;
44204;SDS011;30163;42.698;23.344;2023-08-20T12:19:19;5.78;;;4.03;;
44204;SDS011;30163;42.698;23.344;2023-08-20T12:21:44;6.15;;;4.15;;
44204;SDS011;30163;42.698;23.344;2023-08-20T12:24:10;11.43;;;3.60;;
44204;SDS011;30163;42.698;23.344;2023-08-20T12:26:36;12.63;;;4.03;;
44204;SDS011;30163;42.698;23.344;2023-08-20T12:29:02;9.20;;;4.13;;
44204;SDS011;30163;42.698;23.344;2023-08-20T12:31:27;9.98;;;4.20;;
44204;SDS011;30163;42.698;23.344;2023-08-20T12:33:53;6.53;;;4.10;;
44204;SDS011;30163;42.698;23.344;2023-08-20T12:36:18;5.05;;;3.65;;
44204;SDS011;30163;42.698;23.344;2023-08-20T12:38:44;9.27;;;4.38;;
44204;SDS011;30163;42.698;23.344;2023-08-20T12:41:09;6.47;;;4.05;;
44204;SDS011;30163;42.698;23.344;2023-08-20T12:43:35;9.18;;;3.90;;
44204;SDS011;30163;42.698;23.344;2023-08-20T12:46:00;7.25;;;3.67;;
44204;SDS011;30163;42.698;23.344;2023-08-20T12:48:25;6.40;;;3.80;;
44204;SDS011;30163;42.698;23.344;2023-08-20T12:50:51;9.00;;;3.78;;
44204;SDS011;30163;42.698;23.344;2023-08-20T12:53:16;7.47;;;3.55;;
44204;SDS011;30163;42.698;23.344;2023-08-20T12:55:42;10.07;;;4.00;;
44204;SDS011;30163;42.698;23.344;2023-08-20T12:58:07;5.97;;;3.70;;
44204;SDS011;30163;42.698;23.344;2023-08-20T13:00:32;8.60;;;3.60;;
44204;SDS011;30163;42.698;23.344;2023-08-20T13:02:58;6.18;;;4.10;;
44204;SDS011;30163;42.698;23.344;2023-08-20T13:05:24;6.95;;;3.90;;
44204;SDS011;30163;42.698;23.344;2023-08-20T13:07:51;6.18;;;4.00;;
44204;SDS011;30163;42.698;23.344;2023-08-20T13:10:17;7.38;;;3.85;;
44204;SDS011;30163;42.698;23.344;2023-08-20T13:12:45;6.38;;;3.63;;
44204;SDS011;30163;42.698;23.344;2023-08-20T13:15:14;4.88;;;3.80;;
44204;SDS011;30163;42.698;23.344;2023-08-20T13:17:45;7.85;;;3.35;;
44204;SDS011;30163;42.698;23.344;2023-08-20T13:20:11;4.90;;;3.80;;
44204;SDS011;30163;42.698;23.344;2023-08-20T13:22:37;10.15;;;4.07;;
44204;SDS011;30163;42.698;23.344;2023-08-20T13:25:02;9.75;;;4.57;;
44204;SDS011;30163;42.698;23.344;2023-08-20T13:27:29;8.48;;;4.40;;
44204;SDS011;30163;42.698;23.344;2023-08-20T13:29:55;5.38;;;3.15;;
44204;SDS011;30163;42.698;23.344;2023-08-20T13:32:21;9.80;;;3.70;;
44204;SDS011;30163;42.698;23.344;2023-08-20T13:34:46;11.35;;;3.95;;
44204;SDS011;30163;42.698;23.344;2023-08-20T13:37:11;9.13;;;4.40;;
44204;SDS011;30163;42.698;23.344;2023-08-20T13:39:37;17.27;;;3.95;;
44204;SDS011;30163;42.698;23.344;2023-08-20T13:42:02;5.47;;;3.55;;
44204;SDS011;30163;42.698;23.344;2023-08-20T13:44:28;5.25;;;3.40;;
44204;SDS011;30163;42.698;23.344;2023-08-20T13:46:53;6.13;;;4.07;;
44204;SDS011;30163;42.698;23.344;2023-08-20T13:49:18;6.22;;;3.58;;
44204;SDS011;30163;42.698;23.344;2023-08-20T13:51:44;6.93;;;3.88;;
44204;SDS011;30163;42.698;23.344;2023-08-20T13:54:09;9.77;;;4.22;;
44204;SDS011;30163;42.698;23.344;2023-08-20T13:56:35;6.90;;;3.72;;
44204;SDS011;30163;42.698;23.344;2023-08-20T13:59:00;7.03;;;3.83;;
44204;SDS011;30163;42.698;23.344;2023-08-20T14:01:25;5.72;;;3.40;;
44204;SDS011;30163;42.698;23.344;2023-08-20T14:03:51;9.10;;;3.88;;
44204;SDS011;30163;42.698;23.344;2023-08-20T14:06:17;8.57;;;3.70;;
44204;SDS011;30163;42.698;23.344;2023-08-20T14:08:42;5.50;;;3.75;;
44204;SDS011;30163;42.698;23.344;2023-08-20T14:11:08;8.43;;;3.80;;
44204;SDS011;30163;42.698;23.344;2023-08-20T14:13:34;6.65;;;3.47;;
44204;SDS011;30163;42.698;23.344;2023-08-20T14:15:59;6.53;;;3.67;;
44204;SDS011;30163;42.698;23.344;2023-08-20T14:18:26;5.57;;;3.55;;
44204;SDS011;30163;42.698;23.344;2023-08-20T14:20:51;7.18;;;3.78;;
44204;SDS011;30163;42.698;23.344;2023-08-20T14:23:17;6.95;;;4.22;;
44204;SDS011;30163;42.698;23.344;2023-08-20T14:25:42;6.32;;;3.50;;
44204;SDS011;30163;42.698;23.344;2023-08-20T14:28:08;4.30;;;3.83;;
44204;SDS011;30163;42.698;23.344;2023-08-20T14:30:37;5.10;;;3.80;;
44204;SDS011;30163;42.698;23.344;2023-08-20T14:33:03;4.38;;;3.47;;
44204;SDS011;30163;42.698;23.344;2023-08-20T14:35:29;6.78;;;3.72;;
44204;SDS011;30163;42.698;23.344;2023-08-20T14:37:55;6.15;;;3.75;;